Megah Delapan — VRGA4 — position and weather

sailwx.info

Track history (hours):
 
Tides and Currents Weather Stations Pressure Air Temp Water Temp Dewpoint Dewpoint Depression Visibility Wind Speed Wind Dir Waves Ship Positions

Megah Delapan

Last reported at 2016-Apr-22 07:06 UTC. Time now 2016-Apr-29 08:11 UTC.
Position N 01°16' E 104°09'.

Length 120 m; draft 5.9 m.

Type: Cargo ship. MMSI: 477639100.

Date/timePositionNaut miles runAvg speedWind from/ knotsBaromVisibWave heightAir tempDewpointWater temp
2016-Apr-22 07:06N 01°16' E 104°09'713.0
2016-Apr-22 06:33N 01°15' E 104°02'1312.7
2016-Apr-22 05:33N 01°10' E 103°50'1212.5
2016-Apr-22 04:33N 01°03' E 103°40'1413.1
2016-Apr-22 03:29N 01°09' E 103°28'7214.2
2016-Apr-21 22:27N 01°47' E 102°27'  
2016-Apr-19 16:24N 01°56' E 102°19'1113.3
2016-Apr-19 15:33N 01°51' E 102°30'1312.7
2016-Apr-19 14:31N 01°46' E 102°42'6112.3
2016-Apr-19 09:32N 01°12' E 103°33'1212.7
2016-Apr-19 08:33N 01°09' E 103°45'1212.1
2016-Apr-19 07:33N 01°14' E 103°56'12 9.9
2016-Apr-19 06:23N 01°19' E 104°06'1010.6
2016-Apr-19 05:29N 01°24' E 103°58'3 0.1
2016-Apr-18 06:26N 01°23' E 104°01'8 2.9
2016-Apr-18 03:33N 01°15' E 104°02'1312.6
2016-Apr-18 02:33N 01°11' E 103°50'4 3.9
2016-Apr-18 01:31N 01°15' E 103°49'0 0.1
2016-Apr-18 00:31N 01°15' E 103°49'0 0.1
2016-Apr-17 23:31N 01°15' E 103°49'0 0.1
2016-Apr-17 22:22N 01°15' E 103°48'0 0.1
2016-Apr-17 21:28N 01°15' E 103°49'0 0.1
2016-Apr-17 20:25N 01°15' E 103°49'0 0.0
2016-Apr-17 19:31N 01°15' E 103°49'0 0.1
2016-Apr-17 18:31N 01°15' E 103°49'0 0.1
2016-Apr-17 17:22N 01°15' E 103°49'0 0.1
2016-Apr-17 16:31N 01°15' E 103°49'0 0.0
2016-Apr-17 15:31N 01°15' E 103°49'0 0.1
2016-Apr-17 14:31N 01°15' E 103°49'1 1.0
2016-Apr-17 13:33N 01°15' E 103°48'4 4.0
2016-Apr-17 12:33N 01°17' E 103°44'2 1.6
2016-Apr-17 11:29N 01°18' E 103°43'0 0.0
2016-Apr-17 10:26N 01°18' E 103°43'0 0.0
2016-Apr-17 09:26N 01°18' E 103°43'0 0.0
2016-Apr-17 08:32N 01°18' E 103°43'0 0.0
2016-Apr-17 07:32N 01°18' E 103°43'0 0.0
2016-Apr-17 06:26N 01°18' E 103°43'1 1.6
2016-Apr-17 05:33N 01°17' E 103°44'8 8.4
2016-Apr-17 04:33N 01°13' E 103°51'8 8.3
2016-Apr-17 03:33N 01°15' E 103°59'  
Track history (hours):
 
Tides and Currents Weather Stations Pressure Air Temp Water Temp Dewpoint Dewpoint Depression Visibility Wind Speed Wind Dir Waves Ship Positions

Megah Delapan

Last reported at 2016-Apr-22 07:06 UTC. Time now 2016-Apr-29 08:11 UTC.
Position N 01°16' E 104°09'.

Length 120 m; draft 5.9 m.

Type: Cargo ship. MMSI: 477639100.

Date/timePositionNaut miles runAvg speedWind from/ knotsBaromVisibWave heightAir tempDewpointWater temp
2016-Apr-22 07:06N 01°16' E 104°09'713.0
2016-Apr-22 06:33N 01°15' E 104°02'1312.7
2016-Apr-22 05:33N 01°10' E 103°50'1212.5
2016-Apr-22 04:33N 01°03' E 103°40'1413.1
2016-Apr-22 03:29N 01°09' E 103°28'7214.2
2016-Apr-21 22:27N 01°47' E 102°27'  
2016-Apr-19 16:24N 01°56' E 102°19'1113.3
2016-Apr-19 15:33N 01°51' E 102°30'1312.7
2016-Apr-19 14:31N 01°46' E 102°42'6112.3
2016-Apr-19 09:32N 01°12' E 103°33'1212.7
2016-Apr-19 08:33N 01°09' E 103°45'1212.1
2016-Apr-19 07:33N 01°14' E 103°56'12 9.9
2016-Apr-19 06:23N 01°19' E 104°06'1010.6
2016-Apr-19 05:29N 01°24' E 103°58'3 0.1
2016-Apr-18 06:26N 01°23' E 104°01'8 2.9
2016-Apr-18 03:33N 01°15' E 104°02'1312.6
2016-Apr-18 02:33N 01°11' E 103°50'4 3.9
2016-Apr-18 01:31N 01°15' E 103°49'0 0.1
2016-Apr-18 00:31N 01°15' E 103°49'0 0.1
2016-Apr-17 23:31N 01°15' E 103°49'0 0.1
2016-Apr-17 22:22N 01°15' E 103°48'0 0.1
2016-Apr-17 21:28N 01°15' E 103°49'0 0.1
2016-Apr-17 20:25N 01°15' E 103°49'0 0.0
2016-Apr-17 19:31N 01°15' E 103°49'0 0.1
2016-Apr-17 18:31N 01°15' E 103°49'0 0.1
2016-Apr-17 17:22N 01°15' E 103°49'0 0.1
2016-Apr-17 16:31N 01°15' E 103°49'0 0.0
2016-Apr-17 15:31N 01°15' E 103°49'0 0.1
2016-Apr-17 14:31N 01°15' E 103°49'1 1.0
2016-Apr-17 13:33N 01°15' E 103°48'4 4.0
2016-Apr-17 12:33N 01°17' E 103°44'2 1.6
2016-Apr-17 11:29N 01°18' E 103°43'0 0.0
2016-Apr-17 10:26N 01°18' E 103°43'0 0.0
2016-Apr-17 09:26N 01°18' E 103°43'0 0.0
2016-Apr-17 08:32N 01°18' E 103°43'0 0.0
2016-Apr-17 07:32N 01°18' E 103°43'0 0.0
2016-Apr-17 06:26N 01°18' E 103°43'1 1.6
2016-Apr-17 05:33N 01°17' E 103°44'8 8.4
2016-Apr-17 04:33N 01°13' E 103°51'8 8.3
2016-Apr-17 03:33N 01°15' E 103°59'  

Dump ship's entire track history